Avioradar koristi kolačiće da bi Vam omogućio jednostavnije i ugodnije korištenje stranice. 

AVIORADAR - Hrvatski zrakoplovni portal

METAR & TAF

[Source: ADDS]
METAR
LDZA 021930Z 00000KT CAVOK 04/M02 Q1034 NOSIG =
LDZA 021725Z 0218/0318 11005KT CAVOK TX15/0314Z TNM03/0306Z PROB40 0302/0308 3000 MIFG BR PROB30 TEMPO 0304/0307 1000 BCFG LDSP 021930Z 33006KT 290V030 CAVOK 11/00 Q1032 NOSIG =
LDSP 021725Z 0218/0318 31008KT CAVOK TX16/0313Z TN05/0306Z BECMG 0311/0313 23008KT BECMG 0315/0317 31007KT LDDU 021930Z VRB04KT CAVOK 09/01 Q1031 NOSIG =
LDDU 021725Z 0218/0318 30007KT CAVOK TX15/0312Z TN07/0306Z BECMG 0218/0220 02009KT BECMG 0311/0313 29008KT BECMG 0316/0318 32005KT LDPL 021930Z 34003KT 290V010 CAVOK 06/M01 Q1033 NOSIG =
LDPL 021725Z 0218/0318 30005KT CAVOK TX15/0312Z TN02/0306Z BECMG 0308/0310 29010KT BECMG 0316/0318 29004KT LDZD 021930Z 00000KT CAVOK 03/01 Q1032 =
LDZD 021725Z 0218/0318 32004KT CAVOK TX16/0312Z TNM01/0305Z PROB30 TEMPO 0223/0306 2000 BCFG PROB40 TEMPO 0300/0306 4000 BR MIFG BECMG 0310/0312 30010KT BECMG 0316/0318 32004KT LDRI 021930Z 32003KT CAVOK 10/M01 Q1032 =
LDRI 021725Z 0218/0318 VRB02KT CAVOK TX16/0314Z TN02/0306Z PROB30 TEMPO 0310/0315 29008KT LDOS 021930Z 21001KT CAVOK 05/00 Q1034 =
LDOS 021725Z 0218/0318 VRB02KT CAVOK TX15/0314Z TNM03/0306Z PROB30 0303/0308 3000 BR
TAF
LDZA 021725Z 0218/0318 11005KT CAVOK TX15/0314Z TNM03/0306Z PROB40 0302/0308 3000 MIFG BR PROB30 TEMPO 0304/0307 1000 BCFG =
LDSP 021725Z 0218/0318 31008KT CAVOK TX16/0313Z TN05/0306Z BECMG 0311/0313 23008KT BECMG 0315/0317 31007KT =
LDDU 021725Z 0218/0318 30007KT CAVOK TX15/0312Z TN07/0306Z BECMG 0218/0220 02009KT BECMG 0311/0313 29008KT BECMG 0316/0318 32005KT =
LDPL 021725Z 0218/0318 30005KT CAVOK TX15/0312Z TN02/0306Z BECMG 0308/0310 29010KT BECMG 0316/0318 29004KT =
LDZD 021725Z 0218/0318 32004KT CAVOK TX16/0312Z TNM01/0305Z PROB30 TEMPO 0223/0306 2000 BCFG PROB40 TEMPO 0300/0306 4000 BR MIFG BECMG 0310/0312 30010KT BECMG 0316/0318 32004KT =
LDRI 021725Z 0218/0318 VRB02KT CAVOK TX16/0314Z TN02/0306Z PROB30 TEMPO 0310/0315 29008KT =
LDOS 021725Z 0218/0318 VRB02KT CAVOK TX15/0314Z TNM03/0306Z PROB30 0303/0308 3000 BR =
SR / SS: 05:31 / 16:44 UTC (Zagreb 2021-03-02)